sensor_id;sensor_type;location;lat;lon;timestamp;temperature;humidity
50989;DHT22;37008;52.210;21.112;2024-03-23T00:55:36;8.50;99.90
50989;DHT22;37008;52.210;21.112;2024-03-23T00:58:02;8.50;99.90
50989;DHT22;37008;52.210;21.112;2024-03-23T01:00:27;8.40;99.90
50989;DHT22;37008;52.210;21.112;2024-03-23T01:02:53;8.50;99.90
50989;DHT22;37008;52.210;21.112;2024-03-23T01:05:19;8.40;99.90
50989;DHT22;37008;52.210;21.112;2024-03-23T01:07:44;8.40;99.90
50989;DHT22;37008;52.210;21.112;2024-03-23T01:10:10;8.40;99.90
50989;DHT22;37008;52.210;21.112;2024-03-23T01:12:35;8.40;99.90
50989;DHT22;37008;52.210;21.112;2024-03-23T01:15:01;8.40;99.90
50989;DHT22;37008;52.210;21.112;2024-03-23T01:17:26;8.40;99.90
50989;DHT22;37008;52.210;21.112;2024-03-23T01:19:52;8.40;99.90
50989;DHT22;37008;52.210;21.112;2024-03-23T01:22:17;8.40;99.90
50989;DHT22;37008;52.210;21.112;2024-03-23T01:24:43;8.30;99.90
50989;DHT22;37008;52.210;21.112;2024-03-23T01:27:09;8.40;99.90
50989;DHT22;37008;52.210;21.112;2024-03-23T01:29:35;8.30;99.90
50989;DHT22;37008;52.210;21.112;2024-03-23T01:32:00;8.30;99.90
50989;DHT22;37008;52.210;21.112;2024-03-23T01:34:26;8.40;99.90
50989;DHT22;37008;52.210;21.112;2024-03-23T01:36:53;8.30;99.90
50989;DHT22;37008;52.210;21.112;2024-03-23T01:39:19;8.30;99.90
50989;DHT22;37008;52.210;21.112;2024-03-23T01:41:44;8.30;99.90
50989;DHT22;37008;52.210;21.112;2024-03-23T01:44:10;8.30;99.90
50989;DHT22;37008;52.210;21.112;2024-03-23T01:46:37;8.30;99.90
50989;DHT22;37008;52.210;21.112;2024-03-23T01:49:05;8.30;99.90
50989;DHT22;37008;52.210;21.112;2024-03-23T01:51:32;8.30;99.90
50989;DHT22;37008;52.210;21.112;2024-03-23T01:53:58;8.40;99.90
50989;DHT22;37008;52.210;21.112;2024-03-23T01:56:28;8.30;99.90
50989;DHT22;37008;52.210;21.112;2024-03-23T01:58:54;8.30;99.90
50989;DHT22;37008;52.210;21.112;2024-03-23T02:01:19;8.30;99.90
50989;DHT22;37008;52.210;21.112;2024-03-23T02:03:45;8.30;99.90
50989;DHT22;37008;52.210;21.112;2024-03-23T02:06:10;8.40;99.90
50989;DHT22;37008;52.210;21.112;2024-03-23T02:08:36;8.40;99.90
50989;DHT22;37008;52.210;21.112;2024-03-23T02:11:02;8.30;99.90
50989;DHT22;37008;52.210;21.112;2024-03-23T02:13:27;8.40;99.90
50989;DHT22;37008;52.210;21.112;2024-03-23T02:15:53;8.30;99.90
50989;DHT22;37008;52.210;21.112;2024-03-23T02:18:18;8.40;99.90
50989;DHT22;37008;52.210;21.112;2024-03-23T02:20:44;8.40;99.90
50989;DHT22;37008;52.210;21.112;2024-03-23T02:23:16;8.40;99.90
50989;DHT22;37008;52.210;21.112;2024-03-23T02:25:43;8.40;99.90
50989;DHT22;37008;52.210;21.112;2024-03-23T02:28:09;8.40;99.90
50989;DHT22;37008;52.210;21.112;2024-03-23T02:30:35;8.40;99.90
50989;DHT22;37008;52.210;21.112;2024-03-23T02:33:01;8.30;99.90
50989;DHT22;37008;52.210;21.112;2024-03-23T02:35:26;8.40;99.90
50989;DHT22;37008;52.210;21.112;2024-03-23T02:37:52;8.40;99.90
50989;DHT22;37008;52.210;21.112;2024-03-23T02:40:19;8.40;99.90
50989;DHT22;37008;52.210;21.112;2024-03-23T02:42:45;8.40;99.90
50989;DHT22;37008;52.210;21.112;2024-03-23T02:45:10;8.50;99.90
50989;DHT22;37008;52.210;21.112;2024-03-23T02:47:36;8.40;99.90
50989;DHT22;37008;52.210;21.112;2024-03-23T02:50:02;8.40;99.90
50989;DHT22;37008;52.210;21.112;2024-03-23T02:52:27;8.40;99.90
50989;DHT22;37008;52.210;21.112;2024-03-23T02:54:53;8.40;99.90
50989;DHT22;37008;52.210;21.112;2024-03-23T02:57:19;8.40;99.90
50989;DHT22;37008;52.210;21.112;2024-03-23T02:59:44;8.40;99.90
50989;DHT22;37008;52.210;21.112;2024-03-23T03:02:13;8.40;99.90
50989;DHT22;37008;52.210;21.112;2024-03-23T03:04:38;8.50;99.90
50989;DHT22;37008;52.210;21.112;2024-03-23T03:07:04;8.40;99.90
50989;DHT22;37008;52.210;21.112;2024-03-23T03:09:30;8.40;99.90
50989;DHT22;37008;52.210;21.112;2024-03-23T03:11:55;8.50;99.90
50989;DHT22;37008;52.210;21.112;2024-03-23T03:14:21;8.50;99.90
50989;DHT22;37008;52.210;21.112;2024-03-23T03:16:47;8.50;99.90
50989;DHT22;37008;52.210;21.112;2024-03-23T03:19:12;8.50;99.90
50989;DHT22;37008;52.210;21.112;2024-03-23T03:21:38;8.50;99.90
50989;DHT22;37008;52.210;21.112;2024-03-23T03:24:05;8.50;99.90
50989;DHT22;37008;52.210;21.112;2024-03-23T03:26:31;8.50;99.90
50989;DHT22;37008;52.210;21.112;2024-03-23T03:28:57;8.50;99.90
50989;DHT22;37008;52.210;21.112;2024-03-23T03:31:23;8.50;99.90
50989;DHT22;37008;52.210;21.112;2024-03-23T03:33:50;8.50;99.90
50989;DHT22;37008;52.210;21.112;2024-03-23T03:36:16;8.50;99.90
50989;DHT22;37008;52.210;21.112;2024-03-23T03:38:42;8.50;99.90
50989;DHT22;37008;52.210;21.112;2024-03-23T03:41:07;8.50;99.90
50989;DHT22;37008;52.210;21.112;2024-03-23T03:43:33;8.50;99.90
50989;DHT22;37008;52.210;21.112;2024-03-23T03:46:00;8.50;99.90
50989;DHT22;37008;52.210;21.112;2024-03-23T03:48:26;8.50;99.90
50989;DHT22;37008;52.210;21.112;2024-03-23T03:50:52;8.60;99.90
50989;DHT22;37008;52.210;21.112;2024-03-23T03:53:18;8.60;99.90
50989;DHT22;37008;52.210;21.112;2024-03-23T03:55:43;8.50;99.90
50989;DHT22;37008;52.210;21.112;2024-03-23T03:58:09;8.50;99.90
50989;DHT22;37008;52.210;21.112;2024-03-23T04:00:34;8.60;99.90
50989;DHT22;37008;52.210;21.112;2024-03-23T04:03:01;8.60;99.90
50989;DHT22;37008;52.210;21.112;2024-03-23T04:05:26;8.50;99.90
50989;DHT22;37008;52.210;21.112;2024-03-23T04:07:52;8.60;99.90
50989;DHT22;37008;52.210;21.112;2024-03-23T04:10:17;8.50;99.90
50989;DHT22;37008;52.210;21.112;2024-03-23T04:12:43;8.50;99.90
50989;DHT22;37008;52.210;21.112;2024-03-23T04:15:10;8.60;99.90
50989;DHT22;37008;52.210;21.112;2024-03-23T04:17:35;8.60;99.90
50989;DHT22;37008;52.210;21.112;2024-03-23T04:20:02;8.60;99.90
50989;DHT22;37008;52.210;21.112;2024-03-23T04:22:28;8.60;99.90
50989;DHT22;37008;52.210;21.112;2024-03-23T04:24:55;8.60;99.90
50989;DHT22;37008;52.210;21.112;2024-03-23T04:27:21;8.60;99.90
50989;DHT22;37008;52.210;21.112;2024-03-23T04:29:47;8.60;99.90
50989;DHT22;37008;52.210;21.112;2024-03-23T04:32:14;8.60;99.90
50989;DHT22;37008;52.210;21.112;2024-03-23T04:34:39;8.60;99.90
50989;DHT22;37008;52.210;21.112;2024-03-23T04:37:05;8.60;99.90
50989;DHT22;37008;52.210;21.112;2024-03-23T04:39:31;8.70;99.90
50989;DHT22;37008;52.210;21.112;2024-03-23T04:41:56;8.60;99.90
50989;DHT22;37008;52.210;21.112;2024-03-23T04:44:22;8.60;99.90
50989;DHT22;37008;52.210;21.112;2024-03-23T04:46:47;8.70;99.90
50989;DHT22;37008;52.210;21.112;2024-03-23T04:49:13;8.60;99.90
50989;DHT22;37008;52.210;21.112;2024-03-23T04:51:38;8.60;99.90
50989;DHT22;37008;52.210;21.112;2024-03-23T04:54:05;8.60;99.90
50989;DHT22;37008;52.210;21.112;2024-03-23T04:56:31;8.70;99.90
50989;DHT22;37008;52.210;21.112;2024-03-23T04:58:57;8.70;99.90
50989;DHT22;37008;52.210;21.112;2024-03-23T05:01:27;8.70;99.90
50989;DHT22;37008;52.210;21.112;2024-03-23T05:03:53;8.70;99.90
50989;DHT22;37008;52.210;21.112;2024-03-23T05:06:19;8.70;99.90
50989;DHT22;37008;52.210;21.112;2024-03-23T05:08:45;8.70;99.90
50989;DHT22;37008;52.210;21.112;2024-03-23T05:11:11;8.70;99.90
50989;DHT22;37008;52.210;21.112;2024-03-23T05:13:37;8.70;99.90
50989;DHT22;37008;52.210;21.112;2024-03-23T05:16:02;8.70;99.90
50989;DHT22;37008;52.210;21.112;2024-03-23T05:18:29;8.70;99.90
50989;DHT22;37008;52.210;21.112;2024-03-23T05:20:58;8.80;99.90
50989;DHT22;37008;52.210;21.112;2024-03-23T05:23:25;8.70;99.90
50989;DHT22;37008;52.210;21.112;2024-03-23T05:25:51;8.70;99.90
50989;DHT22;37008;52.210;21.112;2024-03-23T05:28:20;8.70;99.90
50989;DHT22;37008;52.210;21.112;2024-03-23T05:30:55;8.70;99.90
50989;DHT22;37008;52.210;21.112;2024-03-23T05:33:22;8.70;99.90
50989;DHT22;37008;52.210;21.112;2024-03-23T05:35:56;8.80;99.90
50989;DHT22;37008;52.210;21.112;2024-03-23T05:38:22;8.70;99.90
50989;DHT22;37008;52.210;21.112;2024-03-23T05:40:55;8.80;99.90
50989;DHT22;37008;52.210;21.112;2024-03-23T05:43:21;8.80;99.90
50989;DHT22;37008;52.210;21.112;2024-03-23T05:45:53;8.70;99.90
50989;DHT22;37008;52.210;21.112;2024-03-23T05:48:19;8.80;99.90
50989;DHT22;37008;52.210;21.112;2024-03-23T05:50:44;8.80;99.90
50989;DHT22;37008;52.210;21.112;2024-03-23T05:53:10;8.80;99.90
50989;DHT22;37008;52.210;21.112;2024-03-23T05:55:36;8.80;99.90
50989;DHT22;37008;52.210;21.112;2024-03-23T05:58:01;8.80;99.90
50989;DHT22;37008;52.210;21.112;2024-03-23T06:00:27;8.80;99.90
50989;DHT22;37008;52.210;21.112;2024-03-23T06:02:52;8.80;99.90
50989;DHT22;37008;52.210;21.112;2024-03-23T06:05:18;8.80;99.90
50989;DHT22;37008;52.210;21.112;2024-03-23T06:07:43;8.80;99.90
50989;DHT22;37008;52.210;21.112;2024-03-23T06:10:09;8.80;99.90
50989;DHT22;37008;52.210;21.112;2024-03-23T06:12:34;8.80;99.90
50989;DHT22;37008;52.210;21.112;2024-03-23T06:15:00;8.90;99.90
50989;DHT22;37008;52.210;21.112;2024-03-23T06:17:26;8.90;99.90
50989;DHT22;37008;52.210;21.112;2024-03-23T06:19:51;8.90;99.90
50989;DHT22;37008;52.210;21.112;2024-03-23T06:22:17;8.90;99.90
50989;DHT22;37008;52.210;21.112;2024-03-23T06:24:42;8.90;99.90
50989;DHT22;37008;52.210;21.112;2024-03-23T06:27:08;8.90;99.90
50989;DHT22;37008;52.210;21.112;2024-03-23T06:29:34;9.00;99.90
50989;DHT22;37008;52.210;21.112;2024-03-23T06:31:59;9.00;99.90
50989;DHT22;37008;52.210;21.112;2024-03-23T06:34:25;9.00;99.90
50989;DHT22;37008;52.210;21.112;2024-03-23T06:36:50;9.00;99.90
50989;DHT22;37008;52.210;21.112;2024-03-23T06:39:16;9.00;99.90
50989;DHT22;37008;52.210;21.112;2024-03-23T06:41:42;9.10;99.90
50989;DHT22;37008;52.210;21.112;2024-03-23T06:44:08;9.10;99.90
50989;DHT22;37008;52.210;21.112;2024-03-23T06:46:34;9.10;99.90
50989;DHT22;37008;52.210;21.112;2024-03-23T06:48:59;9.10;99.90
50989;DHT22;37008;52.210;21.112;2024-03-23T06:51:25;9.10;99.90
50989;DHT22;37008;52.210;21.112;2024-03-23T06:53:50;9.10;99.90
50989;DHT22;37008;52.210;21.112;2024-03-23T06:56:16;9.10;99.90
50989;DHT22;37008;52.210;21.112;2024-03-23T06:58:41;9.10;99.90
50989;DHT22;37008;52.210;21.112;2024-03-23T07:01:07;9.10;99.90
50989;DHT22;37008;52.210;21.112;2024-03-23T07:03:33;9.20;99.90
50989;DHT22;37008;52.210;21.112;2024-03-23T07:05:58;9.20;99.90
50989;DHT22;37008;52.210;21.112;2024-03-23T07:08:24;9.20;99.90
50989;DHT22;37008;52.210;21.112;2024-03-23T07:10:50;9.30;99.90
50989;DHT22;37008;52.210;21.112;2024-03-23T07:13:15;9.30;99.90
50989;DHT22;37008;52.210;21.112;2024-03-23T07:15:42;9.30;99.90
50989;DHT22;37008;52.210;21.112;2024-03-23T07:18:08;9.30;99.90
50989;DHT22;37008;52.210;21.112;2024-03-23T07:20:33;9.30;99.90
50989;DHT22;37008;52.210;21.112;2024-03-23T07:22:59;9.40;99.90
50989;DHT22;37008;52.210;21.112;2024-03-23T07:25:24;9.30;99.90
50989;DHT22;37008;52.210;21.112;2024-03-23T07:27:53;9.30;99.90
50989;DHT22;37008;52.210;21.112;2024-03-23T07:30:18;9.30;99.90
50989;DHT22;37008;52.210;21.112;2024-03-23T07:32:44;9.30;99.90
50989;DHT22;37008;52.210;21.112;2024-03-23T07:35:10;9.30;99.90
50989;DHT22;37008;52.210;21.112;2024-03-23T07:37:36;9.30;99.90
50989;DHT22;37008;52.210;21.112;2024-03-23T07:40:01;9.30;99.90
50989;DHT22;37008;52.210;21.112;2024-03-23T07:42:27;9.30;99.90
50989;DHT22;37008;52.210;21.112;2024-03-23T07:44:53;9.30;99.90
50989;DHT22;37008;52.210;21.112;2024-03-23T07:47:22;9.30;99.90
50989;DHT22;37008;52.210;21.112;2024-03-23T07:49:47;9.40;99.90
50989;DHT22;37008;52.210;21.112;2024-03-23T07:52:13;9.30;99.90
50989;DHT22;37008;52.210;21.112;2024-03-23T07:54:39;9.20;99.90
50989;DHT22;37008;52.210;21.112;2024-03-23T07:57:05;9.20;99.90
50989;DHT22;37008;52.210;21.112;2024-03-23T07:59:32;9.20;99.90
50989;DHT22;37008;52.210;21.112;2024-03-23T08:01:59;9.20;99.90
50989;DHT22;37008;52.210;21.112;2024-03-23T08:04:26;9.30;99.90
50989;DHT22;37008;52.210;21.112;2024-03-23T08:06:52;9.30;99.90
50989;DHT22;37008;52.210;21.112;2024-03-23T08:09:18;9.40;99.90
50989;DHT22;37008;52.210;21.112;2024-03-23T08:11:44;9.40;99.90
50989;DHT22;37008;52.210;21.112;2024-03-23T08:14:11;9.50;99.90
50989;DHT22;37008;52.210;21.112;2024-03-23T08:16:36;9.70;99.90
50989;DHT22;37008;52.210;21.112;2024-03-23T08:19:02;9.80;99.90
50989;DHT22;37008;52.210;21.112;2024-03-23T08:21:29;9.90;99.90
50989;DHT22;37008;52.210;21.112;2024-03-23T08:23:55;10.00;99.90
50989;DHT22;37008;52.210;21.112;2024-03-23T08:26:20;10.10;99.90
50989;DHT22;37008;52.210;21.112;2024-03-23T08:28:46;10.20;99.90
50989;DHT22;37008;52.210;21.112;2024-03-23T08:31:13;10.20;99.90
50989;DHT22;37008;52.210;21.112;2024-03-23T08:33:40;10.30;99.90
50989;DHT22;37008;52.210;21.112;2024-03-23T08:36:08;10.30;99.90
50989;DHT22;37008;52.210;21.112;2024-03-23T08:38:35;10.30;99.90
50989;DHT22;37008;52.210;21.112;2024-03-23T08:41:04;10.30;99.90
50989;DHT22;37008;52.210;21.112;2024-03-23T08:43:31;10.30;99.90
50989;DHT22;37008;52.210;21.112;2024-03-23T08:48:30;10.30;99.90
50989;DHT22;37008;52.210;21.112;2024-03-23T08:51:07;10.30;99.90
50989;DHT22;37008;52.210;21.112;2024-03-23T08:53:37;10.50;99.90
50989;DHT22;37008;52.210;21.112;2024-03-23T08:56:04;10.70;99.90
50989;DHT22;37008;52.210;21.112;2024-03-23T08:58:30;10.90;99.90
50989;DHT22;37008;52.210;21.112;2024-03-23T09:01:02;11.10;99.90
50989;DHT22;37008;52.210;21.112;2024-03-23T09:03:28;11.20;99.90
50989;DHT22;37008;52.210;21.112;2024-03-23T09:05:54;11.40;99.90
50989;DHT22;37008;52.210;21.112;2024-03-23T09:08:21;11.40;99.90
50989;DHT22;37008;52.210;21.112;2024-03-23T09:10:47;11.60;99.90
50989;DHT22;37008;52.210;21.112;2024-03-23T09:13:13;11.80;99.90
50989;DHT22;37008;52.210;21.112;2024-03-23T09:15:47;11.90;99.90
50989;DHT22;37008;52.210;21.112;2024-03-23T09:18:13;12.00;99.90
50989;DHT22;37008;52.210;21.112;2024-03-23T09:20:39;12.10;99.90
50989;DHT22;37008;52.210;21.112;2024-03-23T09:23:04;12.20;99.90
50989;DHT22;37008;52.210;21.112;2024-03-23T09:25:30;12.20;99.90
50989;DHT22;37008;52.210;21.112;2024-03-23T09:27:55;12.20;99.90
50989;DHT22;37008;52.210;21.112;2024-03-23T09:30:21;12.30;99.90
50989;DHT22;37008;52.210;21.112;2024-03-23T09:32:47;12.50;99.90
50989;DHT22;37008;52.210;21.112;2024-03-23T09:35:12;12.60;99.90
50989;DHT22;37008;52.210;21.112;2024-03-23T09:37:38;12.90;99.90
50989;DHT22;37008;52.210;21.112;2024-03-23T09:40:10;13.10;99.90
50989;DHT22;37008;52.210;21.112;2024-03-23T09:42:37;13.30;99.90
50989;DHT22;37008;52.210;21.112;2024-03-23T09:45:05;13.20;99.90
50989;DHT22;37008;52.210;21.112;2024-03-23T09:47:32;13.30;99.90
50989;DHT22;37008;52.210;21.112;2024-03-23T09:50:00;13.20;99.90
50989;DHT22;37008;52.210;21.112;2024-03-23T09:52:26;13.10;99.90
50989;DHT22;37008;52.210;21.112;2024-03-23T09:54:51;13.00;99.90
50989;DHT22;37008;52.210;21.112;2024-03-23T09:57:17;12.90;99.90
50989;DHT22;37008;52.210;21.112;2024-03-23T09:59:43;12.90;99.90
50989;DHT22;37008;52.210;21.112;2024-03-23T10:02:09;12.90;99.90
50989;DHT22;37008;52.210;21.112;2024-03-23T10:04:37;12.90;99.90
50989;DHT22;37008;52.210;21.112;2024-03-23T10:07:13;12.90;99.90
50989;DHT22;37008;52.210;21.112;2024-03-23T10:09:39;12.90;99.90
50989;DHT22;37008;52.210;21.112;2024-03-23T10:12:16;13.00;99.90
50989;DHT22;37008;52.210;21.112;2024-03-23T10:14:43;13.00;99.90
50989;DHT22;37008;52.210;21.112;2024-03-23T10:17:22;13.10;99.90
50989;DHT22;37008;52.210;21.112;2024-03-23T10:19:56;13.10;99.90
50989;DHT22;37008;52.210;21.112;2024-03-23T10:22:23;13.10;99.90
50989;DHT22;37008;52.210;21.112;2024-03-23T10:24:49;13.00;99.90
50989;DHT22;37008;52.210;21.112;2024-03-23T10:27:17;13.10;99.90
50989;DHT22;37008;52.210;21.112;2024-03-23T10:29:47;13.10;99.90
50989;DHT22;37008;52.210;21.112;2024-03-23T10:32:16;13.20;99.90
50989;DHT22;37008;52.210;21.112;2024-03-23T10:34:42;13.30;99.90
50989;DHT22;37008;52.210;21.112;2024-03-23T10:37:08;13.50;99.90
50989;DHT22;37008;52.210;21.112;2024-03-23T10:42:05;13.70;99.90
50989;DHT22;37008;52.210;21.112;2024-03-23T10:44:31;13.70;99.90
50989;DHT22;37008;52.210;21.112;2024-03-23T10:47:01;13.70;99.90
50989;DHT22;37008;52.210;21.112;2024-03-23T10:49:29;13.70;99.90
50989;DHT22;37008;52.210;21.112;2024-03-23T10:51:56;13.70;99.90
50989;DHT22;37008;52.210;21.112;2024-03-23T10:54:24;13.70;99.90
50989;DHT22;37008;52.210;21.112;2024-03-23T10:57:12;13.60;99.90
50989;DHT22;37008;52.210;21.112;2024-03-23T10:59:40;13.70;99.90
50989;DHT22;37008;52.210;21.112;2024-03-23T11:02:06;13.80;99.90
50989;DHT22;37008;52.210;21.112;2024-03-23T11:04:35;13.70;99.90
50989;DHT22;37008;52.210;21.112;2024-03-23T11:09:54;13.80;99.90
50989;DHT22;37008;52.210;21.112;2024-03-23T11:14:49;14.10;99.90
50989;DHT22;37008;52.210;21.112;2024-03-23T11:17:22;14.30;99.90
50989;DHT22;37008;52.210;21.112;2024-03-23T11:19:58;14.40;99.90
50989;DHT22;37008;52.210;21.112;2024-03-23T11:22:43;14.50;99.90
50989;DHT22;37008;52.210;21.112;2024-03-23T11:25:18;14.70;99.90
50989;DHT22;37008;52.210;21.112;2024-03-23T11:27:45;14.80;99.90
50989;DHT22;37008;52.210;21.112;2024-03-23T11:30:22;14.90;99.90
50989;DHT22;37008;52.210;21.112;2024-03-23T11:32:49;15.10;99.90
50989;DHT22;37008;52.210;21.112;2024-03-23T11:35:30;15.20;99.90
50989;DHT22;37008;52.210;21.112;2024-03-23T11:40:27;15.70;99.90
50989;DHT22;37008;52.210;21.112;2024-03-23T11:43:00;15.80;99.90
50989;DHT22;37008;52.210;21.112;2024-03-23T11:45:26;16.00;99.90
50989;DHT22;37008;52.210;21.112;2024-03-23T11:48:12;16.20;99.90
50989;DHT22;37008;52.210;21.112;2024-03-23T11:50:40;16.40;99.90
50989;DHT22;37008;52.210;21.112;2024-03-23T11:53:13;16.40;99.90
50989;DHT22;37008;52.210;21.112;2024-03-23T11:55:46;16.40;99.90
50989;DHT22;37008;52.210;21.112;2024-03-23T11:58:12;16.40;99.90
50989;DHT22;37008;52.210;21.112;2024-03-23T12:00:38;16.50;99.90
50989;DHT22;37008;52.210;21.112;2024-03-23T12:03:04;16.50;99.90
50989;DHT22;37008;52.210;21.112;2024-03-23T12:05:30;16.40;99.90
50989;DHT22;37008;52.210;21.112;2024-03-23T12:08:22;16.40;99.90
50989;DHT22;37008;52.210;21.112;2024-03-23T12:10:53;16.40;99.90
50989;DHT22;37008;52.210;21.112;2024-03-23T12:13:22;16.40;99.90
50989;DHT22;37008;52.210;21.112;2024-03-23T12:15:50;16.30;99.90
50989;DHT22;37008;52.210;21.112;2024-03-23T12:18:16;16.30;99.90
50989;DHT22;37008;52.210;21.112;2024-03-23T12:20:42;16.30;99.90
50989;DHT22;37008;52.210;21.112;2024-03-23T12:23:12;16.40;99.90
50989;DHT22;37008;52.210;21.112;2024-03-23T12:25:41;16.40;99.90
50989;DHT22;37008;52.210;21.112;2024-03-23T12:28:07;16.50;99.90
50989;DHT22;37008;52.210;21.112;2024-03-23T12:30:40;16.60;99.90
50989;DHT22;37008;52.210;21.112;2024-03-23T12:33:06;16.70;98.70
50989;DHT22;37008;52.210;21.112;2024-03-23T12:35:32;16.70;98.20
50989;DHT22;37008;52.210;21.112;2024-03-23T12:37:58;16.70;99.30
50989;DHT22;37008;52.210;21.112;2024-03-23T12:40:24;16.60;99.90
50989;DHT22;37008;52.210;21.112;2024-03-23T12:42:49;16.50;99.90
50989;DHT22;37008;52.210;21.112;2024-03-23T12:45:15;16.30;99.90
50989;DHT22;37008;52.210;21.112;2024-03-23T12:47:40;16.10;99.90
50989;DHT22;37008;52.210;21.112;2024-03-23T12:50:06;15.80;99.90
50989;DHT22;37008;52.210;21.112;2024-03-23T12:52:35;15.60;99.90
50989;DHT22;37008;52.210;21.112;2024-03-23T12:55:01;15.40;99.90
50989;DHT22;37008;52.210;21.112;2024-03-23T12:57:26;15.20;99.90
50989;DHT22;37008;52.210;21.112;2024-03-23T12:59:53;15.10;99.90
50989;DHT22;37008;52.210;21.112;2024-03-23T13:02:22;15.00;99.90
50989;DHT22;37008;52.210;21.112;2024-03-23T13:04:51;14.80;99.90
50989;DHT22;37008;52.210;21.112;2024-03-23T13:07:18;14.70;99.90
50989;DHT22;37008;52.210;21.112;2024-03-23T13:09:44;14.70;99.90
50989;DHT22;37008;52.210;21.112;2024-03-23T13:12:10;14.60;99.90
50989;DHT22;37008;52.210;21.112;2024-03-23T13:14:38;14.60;99.90
50989;DHT22;37008;52.210;21.112;2024-03-23T13:17:03;14.60;99.90
50989;DHT22;37008;52.210;21.112;2024-03-23T13:19:29;14.60;99.90
50989;DHT22;37008;52.210;21.112;2024-03-23T13:22:00;14.70;99.90
50989;DHT22;37008;52.210;21.112;2024-03-23T13:24:27;14.70;99.90
50989;DHT22;37008;52.210;21.112;2024-03-23T13:26:54;14.70;99.90
50989;DHT22;37008;52.210;21.112;2024-03-23T13:29:20;14.60;99.90
50989;DHT22;37008;52.210;21.112;2024-03-23T13:31:47;14.60;99.90
50989;DHT22;37008;52.210;21.112;2024-03-23T13:34:14;14.60;99.90
50989;DHT22;37008;52.210;21.112;2024-03-23T13:36:43;14.50;99.90
50989;DHT22;37008;52.210;21.112;2024-03-23T13:39:09;14.50;99.90
50989;DHT22;37008;52.210;21.112;2024-03-23T13:41:41;14.50;99.90
50989;DHT22;37008;52.210;21.112;2024-03-23T13:44:08;14.50;99.90
50989;DHT22;37008;52.210;21.112;2024-03-23T13:46:35;14.50;99.90
50989;DHT22;37008;52.210;21.112;2024-03-23T13:49:04;14.60;99.90
50989;DHT22;37008;52.210;21.112;2024-03-23T13:51:30;14.60;99.90
50989;DHT22;37008;52.210;21.112;2024-03-23T13:53:56;14.70;99.90
50989;DHT22;37008;52.210;21.112;2024-03-23T13:56:25;14.60;99.90
50989;DHT22;37008;52.210;21.112;2024-03-23T13:58:51;14.70;99.90
50989;DHT22;37008;52.210;21.112;2024-03-23T14:01:17;14.70;99.90
50989;DHT22;37008;52.210;21.112;2024-03-23T14:03:43;14.60;99.90
50989;DHT22;37008;52.210;21.112;2024-03-23T14:06:10;14.60;99.90
50989;DHT22;37008;52.210;21.112;2024-03-23T14:08:37;14.50;99.90
50989;DHT22;37008;52.210;21.112;2024-03-23T14:11:05;14.50;99.90
50989;DHT22;37008;52.210;21.112;2024-03-23T14:13:31;14.40;99.90
50989;DHT22;37008;52.210;21.112;2024-03-23T14:15:58;14.40;99.90
50989;DHT22;37008;52.210;21.112;2024-03-23T14:18:24;14.40;99.90
50989;DHT22;37008;52.210;21.112;2024-03-23T14:20:59;14.40;99.90
50989;DHT22;37008;52.210;21.112;2024-03-23T14:23:26;14.30;99.90
50989;DHT22;37008;52.210;21.112;2024-03-23T14:25:55;14.30;99.90
50989;DHT22;37008;52.210;21.112;2024-03-23T14:28:22;14.30;99.90
50989;DHT22;37008;52.210;21.112;2024-03-23T14:30:50;14.20;99.90
50989;DHT22;37008;52.210;21.112;2024-03-23T14:33:16;14.30;99.90
50989;DHT22;37008;52.210;21.112;2024-03-23T14:35:43;14.30;99.90
50989;DHT22;37008;52.210;21.112;2024-03-23T14:38:09;14.30;99.90
50989;DHT22;37008;52.210;21.112;2024-03-23T14:40:35;14.20;99.90
50989;DHT22;37008;52.210;21.112;2024-03-23T14:43:01;14.20;99.90
50989;DHT22;37008;52.210;21.112;2024-03-23T14:45:28;14.20;99.90
50989;DHT22;37008;52.210;21.112;2024-03-23T14:47:53;14.20;99.90
50989;DHT22;37008;52.210;21.112;2024-03-23T14:50:19;14.20;99.90
50989;DHT22;37008;52.210;21.112;2024-03-23T14:52:45;14.10;99.90
50989;DHT22;37008;52.210;21.112;2024-03-23T14:55:14;14.20;99.90
50989;DHT22;37008;52.210;21.112;2024-03-23T14:57:40;14.20;99.90
50989;DHT22;37008;52.210;21.112;2024-03-23T15:00:10;14.20;99.90
50989;DHT22;37008;52.210;21.112;2024-03-23T15:02:39;14.10;99.90
50989;DHT22;37008;52.210;21.112;2024-03-23T15:05:06;14.00;99.90
50989;DHT22;37008;52.210;21.112;2024-03-23T15:07:36;13.90;99.90
50989;DHT22;37008;52.210;21.112;2024-03-23T15:10:02;13.80;99.90
50989;DHT22;37008;52.210;21.112;2024-03-23T15:12:30;13.60;99.90
50989;DHT22;37008;52.210;21.112;2024-03-23T15:14:57;13.40;99.90
50989;DHT22;37008;52.210;21.112;2024-03-23T15:17:22;13.30;99.90
50989;DHT22;37008;52.210;21.112;2024-03-23T15:19:48;13.20;99.90
50989;DHT22;37008;52.210;21.112;2024-03-23T15:22:13;13.10;99.90
50989;DHT22;37008;52.210;21.112;2024-03-23T15:24:39;12.90;99.90
50989;DHT22;37008;52.210;21.112;2024-03-23T15:27:05;12.50;99.90
50989;DHT22;37008;52.210;21.112;2024-03-23T15:29:32;11.90;99.90
50989;DHT22;37008;52.210;21.112;2024-03-23T15:31:58;11.60;99.90
50989;DHT22;37008;52.210;21.112;2024-03-23T15:34:24;11.20;99.90
50989;DHT22;37008;52.210;21.112;2024-03-23T15:36:49;11.00;99.90
50989;DHT22;37008;52.210;21.112;2024-03-23T15:39:16;10.90;99.90
50989;DHT22;37008;52.210;21.112;2024-03-23T15:41:44;10.80;99.90
50989;DHT22;37008;52.210;21.112;2024-03-23T15:44:10;10.80;99.90
50989;DHT22;37008;52.210;21.112;2024-03-23T15:46:35;10.70;99.90
50989;DHT22;37008;52.210;21.112;2024-03-23T15:49:01;10.60;99.90
50989;DHT22;37008;52.210;21.112;2024-03-23T15:51:27;10.60;99.90
50989;DHT22;37008;52.210;21.112;2024-03-23T15:53:57;10.50;99.90
50989;DHT22;37008;52.210;21.112;2024-03-23T15:56:23;10.50;99.90
50989;DHT22;37008;52.210;21.112;2024-03-23T15:58:48;10.50;99.90
50989;DHT22;37008;52.210;21.112;2024-03-23T16:01:14;10.50;99.90
50989;DHT22;37008;52.210;21.112;2024-03-23T16:03:39;10.40;99.90
50989;DHT22;37008;52.210;21.112;2024-03-23T16:06:06;10.40;99.90
50989;DHT22;37008;52.210;21.112;2024-03-23T16:08:32;10.30;99.90
50989;DHT22;37008;52.210;21.112;2024-03-23T16:11:02;10.30;99.90
50989;DHT22;37008;52.210;21.112;2024-03-23T16:13:29;10.30;99.90
50989;DHT22;37008;52.210;21.112;2024-03-23T16:15:55;10.30;99.90
50989;DHT22;37008;52.210;21.112;2024-03-23T16:18:22;10.20;99.90
50989;DHT22;37008;52.210;21.112;2024-03-23T16:23:23;10.20;99.90
50989;DHT22;37008;52.210;21.112;2024-03-23T16:25:50;10.20;99.90
50989;DHT22;37008;52.210;21.112;2024-03-23T16:28:25;10.10;99.90
50989;DHT22;37008;52.210;21.112;2024-03-23T16:30:55;10.10;99.90